Concord Corner, Vermont
Current Conditions -  °F | °C
As of 8:55 PM on Friday 24 Oct 2014 (Local Time) from KCDA Reporting Station
Broken Clouds Broken Clouds  
Wind Chill: 39°   Ceiling: 5000
Heat Index: 43°   Visibility: 10mi
Dew Point: 34°   Wind: 6mph
Humidity: 71%   Direction: 280°W
Pressure: 29.81"   Gusts: NA
Location:  44.4417°N, 71.859°W
Report Text: KCDA 250055Z AUTO 28005KT 10SM SCT036 BKN050 BKN080 06/01 A2981 RMK AO2 T00600011
Loading
Personal Weather Stations






























Interactive Weather Map
Tropical Storm Tracking
New forecast layout! Learn more

10-Day Weather Forecast

Advertisements
Track Severe Weather on mobile